Terminal Aerodrome Forecast
Issued by NWS

Current Version | Previous Version | Graphics & Text | Print | Product List | Glossary On
Versions: 1 2 3 4 5 6 7 8 9 10 11 12 13 14 15 16 17 18 19 20 21 22 23
000
FTUS41 KRLX 270300 AAA
TAFCKB
TAF AMD
KCKB 270306Z 2703/2724 35006KT 5SM -SHSN BR OVC030
     FM270700 33005KT 5SM -SHSN BR BKN015
     FM271100 32005KT 6SM -SHSN BR BKN025
     FM271800 30007KT P6SM BKN035=

USA.gov is the U.S. government's official web portal to all federal, state and local government web resources and services.